Time;durP1;ratioP1;P1;durP2;ratioP2;P2;SDS_P1;SDS_P2;PMS_P1;PMS_P2;Temp;Humidity;BMP_temperature;BMP_pressure;BME280_temperature;BME280_humidity;BME280_pressure;Samples;Min_cycle;Max_cycle;Signal;HPM_P1;HPM_P2
2024/03/05 00:01:41;;;;;;;;;;;;;;;-146.32;100.00;63746.28;4172815;28;20450;-68
2024/03/05 00:03:43;;;;;;;;;;;;;;;-146.32;100.00;63746.28;4172087;28;20000;-68
2024/03/05 00:05:45;;;;;;;;;;;;;;;-146.32;100.00;63746.28;4172876;28;20015;-68
2024/03/05 00:07:47;;;;;;;;;;;;;;;-146.32;100.00;63746.28;4173364;28;20024;-68
2024/03/05 00:09:48;;;;;;;;;;;;;;;-146.32;100.00;63746.28;4170231;28;20024;-68
2024/03/05 00:11:51;;;;;;;;;;;;;;;-146.32;100.00;63746.28;4172812;28;20016;-68
2024/03/05 00:13:53;;;;;;;;;;;;;;;-146.32;100.00;63746.28;4154677;28;20016;-68
2024/03/05 00:15:57;;;;;;;;;;;;;;;-146.32;100.00;63746.28;4172947;28;20173;-68
2024/03/05 00:17:59;;;;;;;;;;;;;;;-146.32;100.00;63746.28;4173099;28;20024;-68
2024/03/05 00:20:01;;;;;;;;;;;;;;;-146.32;100.00;63746.28;4173234;28;20019;-68
2024/03/05 00:22:03;;;;;;;;;;;;;;;-146.32;100.00;63746.28;4172371;28;20012;-69
2024/03/05 00:24:05;;;;;;;;;;;;;;;-146.32;100.00;63746.28;4173069;28;20012;-68
2024/03/05 00:26:08;;;;;;;;;;;;;;;-146.32;100.00;63746.28;4173441;28;20019;-68
2024/03/05 00:28:10;;;;;;;;;;;;;;;-146.32;100.00;63746.28;4173152;28;20024;-68
2024/03/05 00:30:13;;;;;;;;;;;;;;;-146.32;100.00;63746.28;4172370;28;20011;-68
2024/03/05 00:32:17;;;;;;;;;;;;;;;-146.32;100.00;63746.28;4172877;28;20008;-69
2024/03/05 00:34:19;;;;;;;;;;;;;;;-146.32;100.00;63746.28;4171965;28;20015;-68
2024/03/05 00:36:21;;;;;;;;;;;;;;;-146.32;100.00;63746.28;4173054;28;20015;-68
2024/03/05 00:38:23;;;;;;;;;;;;;;;-146.32;100.00;63746.28;4173424;28;20020;-68
2024/03/05 00:40:25;;;;;;;;;;;;;;;-146.32;100.00;63746.28;4172205;28;20440;-68
2024/03/05 00:42:26;;;;;;;;;;;;;;;-146.32;100.00;63746.28;4171484;28;20016;-68
2024/03/05 00:44:28;;;;;;;;;;;;;;;-146.32;100.00;63746.28;4173145;28;19968;-68
2024/03/05 00:46:31;;;;;;;;;;;;;;;-146.32;100.00;63746.28;4172993;28;20016;-68
2024/03/05 00:48:34;;;;;;;;;;;;;;;-146.32;100.00;63746.28;4173096;28;20023;-68
2024/03/05 00:50:36;;;;;;;;;;;;;;;-146.32;100.00;63746.28;4172929;28;20020;-68
2024/03/05 00:52:37;;;;;;;;;;;;;;;-146.32;100.00;63746.28;4173325;28;20023;-68
2024/03/05 00:54:39;;;;;;;;;;;;;;;-146.32;100.00;63746.28;4173112;28;20436;-68
2024/03/05 00:56:40;;;;;;;;;;;;;;;-146.32;100.00;63746.28;4173202;28;20052;-68
2024/03/05 00:58:42;;;;;;;;;;;;;;;-146.32;100.00;63746.28;4172521;28;20383;-68
2024/03/05 01:00:44;;;;;;;;;;;;;;;-146.32;100.00;63746.28;4172630;28;20015;-68
2024/03/05 01:02:46;;;;;;;;;;;;;;;-146.32;100.00;63746.28;4173269;28;20011;-68
2024/03/05 01:04:50;;;;;;;;;;;;;;;-146.32;100.00;63746.28;4171350;28;20024;-68
2024/03/05 01:06:52;;;;;;;;;;;;;;;-146.32;100.00;63746.28;4171786;28;20011;-68
2024/03/05 01:08:55;;;;;;;;;;;;;;;-146.32;100.00;63746.28;4169154;28;20350;-68
2024/03/05 01:10:57;;;;;;;;;;;;;;;-146.32;100.00;63746.28;4172054;28;20020;-68
2024/03/05 01:12:59;;;;;;;;;;;;;;;-146.32;100.00;63746.28;4171194;28;20475;-68
2024/03/05 01:15:00;;;;;;;;;;;;;;;-146.32;100.00;63746.28;4171260;28;20015;-68
2024/03/05 01:17:04;;;;;;;;;;;;;;;-146.32;100.00;63746.28;4172476;28;20026;-68
2024/03/05 01:19:06;;;;;;;;;;;;;;;-146.32;100.00;63746.28;4171702;28;20013;-68
2024/03/05 01:21:09;;;;;;;;;;;;;;;-146.32;100.00;63746.28;4172514;28;20454;-68
2024/03/05 01:23:11;;;;;;;;;;;;;;;-146.32;100.00;63746.28;4173165;28;20024;-68
2024/03/05 01:25:13;;;;;;;;;;;;;;;-146.32;100.00;63746.28;4172181;28;20046;-68
2024/03/05 01:27:14;;;;;;;;;;;;;;;-146.32;100.00;63746.28;4171722;28;20016;-68
2024/03/05 01:29:17;;;;;;;;;;;;;;;-146.32;100.00;63746.28;4173035;28;20089;-68
2024/03/05 01:31:19;;;;;;;;;;;;;;;-146.32;100.00;63746.28;4170861;28;20024;-68
2024/03/05 01:33:22;;;;;;;;;;;;;;;-146.32;100.00;63746.28;4171311;28;20023;-68
2024/03/05 01:35:24;;;;;;;;;;;;;;;-146.32;100.00;63746.28;4172308;28;20007;-68
2024/03/05 01:37:28;;;;;;;;;;;;;;;-146.32;100.00;63746.28;4172709;28;20055;-68
2024/03/05 01:39:30;;;;;;;;;;;;;;;-146.32;100.00;63746.28;4171462;28;20029;-68
2024/03/05 01:41:32;;;;;;;;;;;;;;;-146.32;100.00;63746.28;4171285;28;20027;-68
2024/03/05 01:43:34;;;;;;;;;;;;;;;-146.32;100.00;63746.28;4171319;28;20272;-68
2024/03/05 01:45:35;;;;;;;;;;;;;;;-146.32;100.00;63746.28;4171628;28;20015;-68
2024/03/05 01:47:37;;;;;;;;;;;;;;;-146.32;100.00;63746.28;4171139;28;20135;-68
2024/03/05 01:49:39;;;;;;;;;;;;;;;-146.32;100.00;63746.28;4170633;28;20080;-68
2024/03/05 01:51:42;;;;;;;;;;;;;;;-146.32;100.00;63746.28;4171326;28;20653;-68
2024/03/05 01:53:45;;;;;;;;;;;;;;;-146.32;100.00;63746.28;4171325;28;20035;-68
2024/03/05 01:55:47;;;;;;;;;;;;;;;-146.32;100.00;63746.28;4172496;28;20020;-68
2024/03/05 01:57:49;;;;;;;;;;;;;;;-146.32;100.00;63746.28;4155612;28;20008;-68
2024/03/05 01:59:51;;;;;;;;;;;;;;;-146.32;100.00;63746.28;4171200;28;20343;-68
2024/03/05 02:01:53;;;;;;;;;;;;;;;-146.32;100.00;63746.28;4171966;28;20020;-68
2024/03/05 02:03:55;;;;;;;;;;;;;;;-146.32;100.00;63746.28;4171202;28;20458;-68
2024/03/05 02:05:58;;;;;;;;;;;;;;;-146.32;100.00;63746.28;4171969;28;20012;-68
2024/03/05 02:08:00;;;;;;;;;;;;;;;-146.32;100.00;63746.28;4172117;28;20055;-68
2024/03/05 02:10:07;;;;;;;;;;;;;;;-146.32;100.00;63746.28;4169989;28;20446;-68
2024/03/05 02:12:09;;;;;;;;;;;;;;;-146.32;100.00;63746.28;4170804;28;20023;-68
2024/03/05 02:14:11;;;;;;;;;;;;;;;-146.32;100.00;63746.28;4171209;28;20441;-68
2024/03/05 02:16:13;;;;;;;;;;;;;;;-146.32;100.00;63746.28;4172573;28;20032;-68
2024/03/05 02:18:15;;;;;;;;;;;;;;;-146.32;100.00;63746.28;4171194;28;20040;-68
2024/03/05 02:20:17;;;;;;;;;;;;;;;-146.32;100.00;63746.28;4172216;28;19999;-69
2024/03/05 02:22:20;;;;;;;;;;;;;;;-146.32;100.00;63746.28;4171431;28;20012;-68
2024/03/05 02:24:22;;;;;;;;;;;;;;;-146.32;100.00;63746.28;4171129;28;19987;-68
2024/03/05 02:26:23;;;;;;;;;;;;;;;-146.32;100.00;63746.28;4171180;28;19963;-69
2024/03/05 02:28:26;;;;;;;;;;;;;;;-146.32;100.00;63746.28;4172489;28;20008;-68
2024/03/05 02:30:29;;;;;;;;;;;;;;;-146.32;100.00;63746.28;4172142;28;20031;-69
2024/03/05 02:32:31;;;;;;;;;;;;;;;-146.32;100.00;63746.28;4170511;28;20028;-68
2024/03/05 02:34:33;;;;;;;;;;;;;;;-146.32;100.00;63746.28;4169416;28;20027;-68
2024/03/05 02:36:35;;;;;;;;;;;;;;;-146.32;100.00;63746.28;4170872;28;20421;-68
2024/03/05 02:38:39;;;;;;;;;;;;;;;-146.32;100.00;63746.28;4170821;28;20023;-68
2024/03/05 02:40:41;;;;;;;;;;;;;;;-146.32;100.00;63746.28;4169695;28;20015;-68
2024/03/05 02:42:42;;;;;;;;;;;;;;;-146.32;100.00;63746.28;4170778;28;20024;-68
2024/03/05 02:44:44;;;;;;;;;;;;;;;-146.32;100.00;63746.28;4170573;28;20015;-68
2024/03/05 02:46:46;;;;;;;;;;;;;;;-146.32;100.00;63746.28;4171485;28;20027;-68
2024/03/05 02:48:48;;;;;;;;;;;;;;;-146.32;100.00;63746.28;4170460;28;20082;-68
2024/03/05 02:50:50;;;;;;;;;;;;;;;-146.32;100.00;63746.28;4170732;28;20342;-68
2024/03/05 02:52:52;;;;;;;;;;;;;;;-146.32;100.00;63746.28;4171555;28;20454;-68
2024/03/05 02:54:55;;;;;;;;;;;;;;;-146.32;100.00;63746.28;4171443;28;20028;-68
2024/03/05 02:56:57;;;;;;;;;;;;;;;-146.32;100.00;63746.28;4171271;28;20020;-68
2024/03/05 02:58:59;;;;;;;;;;;;;;;-146.32;100.00;63746.28;4170908;28;20481;-68
2024/03/05 03:01:01;;;;;;;;;;;;;;;-146.32;100.00;63746.28;4170843;28;20355;-68
2024/03/05 03:03:02;;;;;;;;;;;;;;;-146.32;100.00;63746.28;4169884;28;20020;-68
2024/03/05 03:05:05;;;;;;;;;;;;;;;-146.32;100.00;63746.28;4170086;28;20008;-68
2024/03/05 03:07:07;;;;;;;;;;;;;;;-146.32;100.00;63746.28;4171795;28;20015;-68
2024/03/05 03:09:10;;;;;;;;;;;;;;;-146.32;100.00;63746.28;4153391;28;20871;-68
2024/03/05 03:11:16;;;;;;;;;;;;;;;-146.32;100.00;63746.28;4169599;28;20024;-68
2024/03/05 03:13:18;;;;;;;;;;;;;;;-146.32;100.00;63746.28;4170750;28;20442;-68
2024/03/05 03:15:20;;;;;;;;;;;;;;;-146.32;100.00;63746.28;4170652;28;19999;-68
2024/03/05 03:17:22;;;;;;;;;;;;;;;-146.32;100.00;63746.28;4170584;28;20024;-68
2024/03/05 03:19:24;;;;;;;;;;;;;;;-146.32;100.00;63746.28;4169602;28;20971;-68
2024/03/05 03:21:27;;;;;;;;;;;;;;;-146.32;100.00;63746.28;4170497;28;20437;-68
2024/03/05 03:23:29;;;;;;;;;;;;;;;-146.32;100.00;63746.28;4170237;28;20023;-68
2024/03/05 03:25:31;;;;;;;;;;;;;;;-146.32;100.00;63746.28;4169866;28;20438;-68
2024/03/05 03:27:33;;;;;;;;;;;;;;;-146.32;100.00;63746.28;4170939;28;20283;-68
2024/03/05 03:29:35;;;;;;;;;;;;;;;-146.32;100.00;63746.28;4170564;28;20024;-68
2024/03/05 03:31:38;;;;;;;;;;;;;;;-146.32;100.00;63746.28;4170592;28;20012;-68
2024/03/05 03:33:40;;;;;;;;;;;;;;;-146.32;100.00;63746.28;4170469;28;20023;-67
2024/03/05 03:35:42;;;;;;;;;;;;;;;-146.32;100.00;63746.28;4171293;28;20024;-67
2024/03/05 03:37:44;;;;;;;;;;;;;;;-146.32;100.00;63746.28;4171656;28;20031;-67
2024/03/05 03:39:46;;;;;;;;;;;;;;;-146.32;100.00;63746.28;4171955;28;20031;-68
2024/03/05 03:41:48;;;;;;;;;;;;;;;-146.32;100.00;63746.28;4173991;28;20019;-68
2024/03/05 03:43:52;;;;;;;;;;;;;;;-146.32;100.00;63746.28;4156335;28;20004;-68
2024/03/05 03:45:53;;;;;;;;;;;;;;;-146.32;100.00;63746.28;4173475;28;20560;-68
2024/03/05 03:47:55;;;;;;;;;;;;;;;-146.32;100.00;63746.28;4173910;28;20020;-68
2024/03/05 03:49:57;;;;;;;;;;;;;;;-146.32;100.00;63746.28;4173650;28;20020;-68
2024/03/05 03:51:59;;;;;;;;;;;;;;;-146.32;100.00;63746.28;4173403;28;20016;-68
2024/03/05 03:54:00;;;;;;;;;;;;;;;-146.32;100.00;63746.28;4173355;28;20039;-68
2024/03/05 03:56:03;;;;;;;;;;;;;;;-146.32;100.00;63746.28;4173420;28;20007;-68
2024/03/05 03:58:04;;;;;;;;;;;;;;;-146.32;100.00;63746.28;4156164;28;20036;-68
2024/03/05 04:00:16;;;;;;;;;;;;;;;-146.32;100.00;63746.28;4173815;28;20100;-68
2024/03/05 04:02:18;;;;;;;;;;;;;;;-146.32;100.00;63746.28;4174079;28;20011;-68
2024/03/05 04:04:21;;;;;;;;;;;;;;;-146.32;100.00;63746.28;4173929;28;19963;-68
2024/03/05 04:06:23;;;;;;;;;;;;;;;-146.32;100.00;63746.28;4174384;28;20469;-67
2024/03/05 04:08:24;;;;;;;;;;;;;;;-146.32;100.00;63746.28;4173762;28;20011;-68
2024/03/05 04:10:27;;;;;;;;;;;;;;;-146.32;100.00;63746.28;4172012;28;20011;-68
2024/03/05 04:12:29;;;;;;;;;;;;;;;-146.32;100.00;63746.28;4170324;28;20048;-68
2024/03/05 04:14:31;;;;;;;;;;;;;;;-146.32;100.00;63746.28;4172654;28;20008;-68
2024/03/05 04:16:34;;;;;;;;;;;;;;;-146.32;100.00;63746.28;4173057;28;20023;-68
2024/03/05 04:18:35;;;;;;;;;;;;;;;-146.32;100.00;63746.28;4172394;28;20445;-67
2024/03/05 04:20:37;;;;;;;;;;;;;;;-146.32;100.00;63746.28;4172886;28;19925;-68
2024/03/05 04:22:39;;;;;;;;;;;;;;;-146.32;100.00;63746.28;4173059;28;20015;-68
2024/03/05 04:24:47;;;;;;;;;;;;;;;-146.32;100.00;63746.28;4173034;28;20000;-67
2024/03/05 04:26:52;;;;;;;;;;;;;;;-146.32;100.00;63746.28;4172920;28;20016;-67
2024/03/05 04:28:55;;;;;;;;;;;;;;;-146.32;100.00;63746.28;4173561;28;20016;-68
2024/03/05 04:30:57;;;;;;;;;;;;;;;-146.32;100.00;63746.28;4173104;28;20011;-68
2024/03/05 04:33:03;;;;;;;;;;;;;;;-146.32;100.00;63746.28;4173063;28;20023;-68
2024/03/05 04:35:11;;;;;;;;;;;;;;;-146.32;100.00;63746.28;4173257;28;20011;-68
2024/03/05 04:37:13;;;;;;;;;;;;;;;-146.32;100.00;63746.28;4172230;28;20020;-68
2024/03/05 04:39:15;;;;;;;;;;;;;;;-146.32;100.00;63746.28;4172481;28;20019;-67
2024/03/05 04:41:17;;;;;;;;;;;;;;;-146.32;100.00;63746.28;4171918;28;20016;-68
2024/03/05 04:43:19;;;;;;;;;;;;;;;-146.32;100.00;63746.28;4172928;28;20408;-68
2024/03/05 04:45:21;;;;;;;;;;;;;;;-146.32;100.00;63746.28;4172507;28;20035;-68
2024/03/05 04:47:25;;;;;;;;;;;;;;;-146.32;100.00;63746.28;4172715;28;20094;-68
2024/03/05 04:49:28;;;;;;;;;;;;;;;-146.32;100.00;63746.28;4155990;28;20457;-68
2024/03/05 04:51:31;;;;;;;;;;;;;;;-146.32;100.00;63746.28;4173706;28;20024;-68
2024/03/05 04:53:33;;;;;;;;;;;;;;;-146.32;100.00;63746.28;4172923;28;20031;-68
2024/03/05 04:55:36;;;;;;;;;;;;;;;-146.32;100.00;63746.28;4173107;28;20442;-68
2024/03/05 04:57:38;;;;;;;;;;;;;;;-146.32;100.00;63746.28;4173393;28;20264;-68
2024/03/05 04:59:40;;;;;;;;;;;;;;;-146.32;100.00;63746.28;4171180;28;20072;-68
2024/03/05 05:01:44;;;;;;;;;;;;;;;-146.32;100.00;63746.28;4172218;28;20007;-67
2024/03/05 05:03:46;;;;;;;;;;;;;;;-146.32;100.00;63746.28;4172258;28;20023;-68
2024/03/05 05:05:49;;;;;;;;;;;;;;;-146.32;100.00;63746.28;4172880;28;20023;-67
2024/03/05 05:07:52;;;;;;;;;;;;;;;-146.32;100.00;63746.28;4172876;28;20369;-68
2024/03/05 05:09:54;;;;;;;;;;;;;;;-146.32;100.00;63746.28;4170253;28;20028;-68
2024/03/05 05:11:57;;;;;;;;;;;;;;;-146.32;100.00;63746.28;4170741;28;20019;-68
2024/03/05 05:13:59;;;;;;;;;;;;;;;-146.32;100.00;63746.28;4171325;28;20023;-67
2024/03/05 05:16:01;;;;;;;;;;;;;;;-146.32;100.00;63746.28;4171835;28;20005;-68
2024/03/05 05:18:02;;;;;;;;;;;;;;;-146.32;100.00;63746.28;4171901;28;20458;-67
2024/03/05 05:20:07;;;;;;;;;;;;;;;-146.32;100.00;63746.28;4171863;28;20023;-68
2024/03/05 05:22:10;;;;;;;;;;;;;;;-146.32;100.00;63746.28;4171820;28;20454;-68
2024/03/05 05:24:12;;;;;;;;;;;;;;;-146.32;100.00;63746.28;4171695;28;20019;-68
2024/03/05 05:26:15;;;;;;;;;;;;;;;-146.32;100.00;63746.28;4172021;28;20024;-68
2024/03/05 05:28:17;;;;;;;;;;;;;;;-146.32;100.00;63746.28;4171527;28;20364;-68
2024/03/05 05:30:19;;;;;;;;;;;;;;;-146.32;100.00;63746.28;4171708;28;20024;-68
2024/03/05 05:32:23;;;;;;;;;;;;;;;-146.32;100.00;63746.28;4171346;28;20012;-68
2024/03/05 05:34:25;;;;;;;;;;;;;;;-146.32;100.00;63746.28;4170529;28;20489;-68
2024/03/05 05:36:27;;;;;;;;;;;;;;;-146.32;100.00;63746.28;4171171;28;20392;-68
2024/03/05 05:38:30;;;;;;;;;;;;;;;-146.32;100.00;63746.28;4172278;28;20371;-68
2024/03/05 05:40:32;;;;;;;;;;;;;;;-146.32;100.00;63746.28;4171282;28;20019;-67
2024/03/05 05:42:33;;;;;;;;;;;;;;;-146.32;100.00;63746.28;4170447;28;20030;-68
2024/03/05 05:44:35;;;;;;;;;;;;;;;-146.32;100.00;63746.28;4172646;28;20378;-67
2024/03/05 05:46:36;;;;;;;;;;;;;;;-146.32;100.00;63746.28;4172524;28;20012;-66
2024/03/05 05:48:39;;;;;;;;;;;;;;;-146.32;100.00;63746.28;4171319;28;19935;-67
2024/03/05 05:50:42;;;;;;;;;;;;;;;-146.32;100.00;63746.28;4171204;28;20377;-67
2024/03/05 05:52:43;;;;;;;;;;;;;;;-146.32;100.00;63746.28;4171724;28;20457;-68
2024/03/05 05:54:47;;;;;;;;;;;;;;;-146.32;100.00;63746.28;4153628;28;20012;-69
2024/03/05 05:56:49;;;;;;;;;;;;;;;-146.32;100.00;63746.28;4170704;28;20016;-70
2024/03/05 05:58:51;;;;;;;;;;;;;;;-146.32;100.00;63746.28;4171048;28;20027;-69
2024/03/05 06:00:53;;;;;;;;;;;;;;;-146.32;100.00;63746.28;4170021;28;20545;-69
2024/03/05 06:02:54;;;;;;;;;;;;;;;-146.32;100.00;63746.28;4170869;28;20023;-69
2024/03/05 06:04:57;;;;;;;;;;;;;;;-146.32;100.00;63746.28;4171932;28;20003;-69
2024/03/05 06:06:59;;;;;;;;;;;;;;;-146.32;100.00;63746.28;4170635;28;20004;-69
2024/03/05 06:09:08;;;;;;;;;;;;;;;-146.32;100.00;63746.28;4170483;28;20015;-69
2024/03/05 06:11:11;;;;;;;;;;;;;;;-146.32;100.00;63746.28;4169364;28;20352;-70
2024/03/05 06:13:13;;;;;;;;;;;;;;;-146.32;100.00;63746.28;4169731;28;20450;-69
2024/03/05 06:15:14;;;;;;;;;;;;;;;-146.32;100.00;63746.28;4171205;28;20364;-69
2024/03/05 06:17:16;;;;;;;;;;;;;;;-146.32;100.00;63746.28;4170938;28;20043;-69
2024/03/05 06:19:18;;;;;;;;;;;;;;;-146.32;100.00;63746.28;4171043;28;20016;-69
2024/03/05 06:21:20;;;;;;;;;;;;;;;-146.32;100.00;63746.28;4169590;28;20016;-68
2024/03/05 06:23:22;;;;;;;;;;;;;;;-146.32;100.00;63746.28;4170696;28;20027;-69
2024/03/05 06:25:24;;;;;;;;;;;;;;;-146.32;100.00;63746.28;4168871;28;20020;-68
2024/03/05 06:27:28;;;;;;;;;;;;;;;-146.32;100.00;63746.28;4169140;28;20028;-68
2024/03/05 06:29:30;;;;;;;;;;;;;;;-146.32;100.00;63746.28;4169479;28;20028;-68
2024/03/05 06:31:32;;;;;;;;;;;;;;;-146.32;100.00;63746.28;4169314;28;20032;-69
2024/03/05 06:33:34;;;;;;;;;;;;;;;-146.32;100.00;63746.28;4169679;28;20031;-69
2024/03/05 06:35:36;;;;;;;;;;;;;;;-146.32;100.00;63746.28;4169108;28;20059;-69
2024/03/05 06:37:38;;;;;;;;;;;;;;;-146.32;100.00;63746.28;4169966;28;20027;-68
2024/03/05 06:39:41;;;;;;;;;;;;;;;-146.32;100.00;63746.28;4169522;28;20437;-69
2024/03/05 06:41:47;;;;;;;;;;;;;;;-146.32;100.00;63746.28;4170061;28;19929;-69
2024/03/05 06:43:50;;;;;;;;;;;;;;;-146.32;100.00;63746.28;4169418;28;20181;-69
2024/03/05 06:45:52;;;;;;;;;;;;;;;-146.32;100.00;63746.28;4170001;28;20015;-69
2024/03/05 06:47:57;;;;;;;;;;;;;;;-146.32;100.00;63746.28;4170741;28;20023;-69
2024/03/05 06:50:00;;;;;;;;;;;;;;;-146.32;100.00;63746.28;4170428;28;20044;-69
2024/03/05 06:56:41;;;;;;;;;;;;;;;-146.32;100.00;63746.28;4151836;28;20020;-69
2024/03/05 06:58:44;;;;;;;;;;;;;;;-146.32;100.00;63746.28;4169820;28;20027;-69
2024/03/05 07:00:49;;;;;;;;;;;;;;;-146.32;100.00;63746.28;4171311;28;20020;-69
2024/03/05 07:02:52;;;;;;;;;;;;;;;-146.32;100.00;63746.28;4169872;28;20012;-69
2024/03/05 07:04:54;;;;;;;;;;;;;;;-146.32;100.00;63746.28;4170543;28;20032;-69
2024/03/05 07:06:56;;;;;;;;;;;;;;;-146.32;100.00;63746.28;4169826;28;20025;-70
2024/03/05 07:08:57;;;;;;;;;;;;;;;-146.32;100.00;63746.28;4169726;28;20032;-69
2024/03/05 07:11:00;;;;;;;;;;;;;;;-146.32;100.00;63746.28;4169592;28;19925;-68
2024/03/05 07:13:02;;;;;;;;;;;;;;;-146.32;100.00;63746.28;4172709;28;20438;-68
2024/03/05 07:15:09;;;;;;;;;;;;;;;-146.32;100.00;63746.28;4173810;28;20011;-69
2024/03/05 07:17:12;;;;;;;;;;;;;;;-146.32;100.00;63746.28;4173837;28;20028;-69
2024/03/05 15:57:31;;;;;;;;;;;;;;;-146.32;100.00;63746.28;4158696;28;19933;-69
2024/03/05 16:01:53;;;;;;;;;;;;;;;-146.32;100.00;63746.28;4163216;28;20404;-69
2024/03/05 16:04:01;;;;;;;;;;;;;;;-146.32;100.00;63746.28;4163223;28;20044;-69
2024/03/05 16:06:03;;;;;;;;;;;;;;;-146.32;100.00;63746.28;4143445;28;20466;-69
2024/03/05 16:08:07;;;;;;;;;;;;;;;-146.32;100.00;63746.28;4131191;28;20024;-69
2024/03/05 16:10:14;;;;;;;;;;;;;;;-146.32;100.00;63746.28;4145556;28;20033;-69
2024/03/05 16:12:16;;;;;;;;;;;;;;;-146.32;100.00;63746.28;4147475;28;20017;-69
2024/03/05 16:14:19;;;;;;;;;;;;;;;-146.32;100.00;63746.28;4146955;28;20012;-69
2024/03/05 16:16:23;;;;;;;;;;;;;;;-146.32;100.00;63746.28;4146423;28;20012;-68
2024/03/05 16:18:26;;;;;;;;;;;;;;;-146.32;100.00;63746.28;4148032;28;20025;-68
2024/03/05 16:20:28;;;;;;;;;;;;;;;-146.32;100.00;63746.28;4147958;28;20371;-68
2024/03/05 16:22:30;;;;;;;;;;;;;;;-146.32;100.00;63746.28;4148084;28;20358;-68
2024/03/05 16:24:35;;;;;;;;;;;;;;;-146.32;100.00;63746.28;4146799;28;20362;-68
2024/03/05 16:26:37;;;;;;;;;;;;;;;-146.32;100.00;63746.28;4146136;28;20012;-66
2024/03/05 16:28:40;;;;;;;;;;;;;;;-146.32;100.00;63746.28;4147313;28;20059;-69
2024/03/05 16:30:43;;;;;;;;;;;;;;;10.05;nan;101267.59;4147735;28;20020;-68
2024/03/05 16:32:45;;;;;;;;;;;;;;;9.98;nan;101271.09;4146324;28;19932;-68
2024/03/05 16:34:49;;;;;;;;;;;;;;;9.92;nan;101265.34;4137799;28;19932;-67
2024/03/05 16:36:51;;;;;;;;;;;;;;;9.90;nan;101277.28;4147265;28;19940;-67
2024/03/05 16:38:56;;;;;;;;;;;;;;;9.86;nan;101278.63;4147790;28;19929;-68
2024/03/05 16:40:58;;;;;;;;;;;;;;;9.83;nan;101278.97;4146484;28;20305;-68
2024/03/05 16:43:04;;;;;;;;;;;;;;;9.77;nan;101277.72;4146853;28;20386;-68
2024/03/05 16:45:06;;;;;;;;;;;;;;;9.73;nan;101288.00;4146462;28;19925;-68
2024/03/05 16:47:11;;;;;;;;;;;;;;;9.69;nan;101292.00;4146536;28;19932;-68
2024/03/05 16:49:13;;;;;;;;;;;;;;;9.67;nan;101287.75;4147167;28;19934;-68
2024/03/05 16:51:16;;;;;;;;;;;;;;;9.61;nan;101291.94;4146668;28;20396;-69
2024/03/05 16:53:20;;;;;;;;;;;;;;;9.56;nan;101291.56;4148194;28;19933;-69
2024/03/05 16:55:23;;;;;;;;;;;;;;;9.51;nan;101297.44;4147265;28;19935;-68
2024/03/05 16:57:25;;;;;;;;;;;;;;;9.47;nan;101300.63;4146395;28;20393;-69
2024/03/05 16:59:28;;;;;;;;;;;;;;;9.43;nan;101304.63;4146282;28;19947;-69
2024/03/05 17:01:33;;;;;;;;;;;;;;;9.39;nan;101298.69;4144903;28;19926;-69
2024/03/05 17:03:39;;;;;;;;;;;;;;;9.37;nan;101300.69;4144481;28;19930;-69
2024/03/05 17:05:45;;;;;;;;;;;;;;;9.33;nan;101302.00;4146430;28;19935;-68
2024/03/05 17:07:54;;;;;;;;;;;;;;;9.28;nan;101305.16;4146998;28;20400;-68
2024/03/05 17:09:57;;;;;;;;;;;;;;;9.24;nan;101305.63;4146639;28;19932;-69
2024/03/05 17:12:00;;;;;;;;;;;;;;;9.18;nan;101299.88;4144732;28;19929;-69
2024/03/05 17:14:03;;;;;;;;;;;;;;;9.15;nan;101310.09;4146647;28;19929;-69
2024/03/05 17:16:06;;;;;;;;;;;;;;;9.11;nan;101309.56;4129645;28;19930;-69
2024/03/05 17:18:10;;;;;;;;;;;;;;;9.08;nan;101311.72;4147149;28;19930;-69
2024/03/05 17:20:20;;;;;;;;;;;;;;;9.02;nan;101311.31;4146730;28;19929;-69
2024/03/05 17:22:24;;;;;;;;;;;;;;;8.99;nan;101308.91;4146863;28;19925;-69
2024/03/05 17:24:26;;;;;;;;;;;;;;;8.96;nan;101311.06;4147418;28;19930;-69
2024/03/05 17:26:28;;;;;;;;;;;;;;;8.92;nan;101315.06;4146930;28;20337;-68
2024/03/05 17:28:30;;;;;;;;;;;;;;;8.87;nan;101311.97;4145954;28;20395;-68
2024/03/05 17:30:37;;;;;;;;;;;;;;;8.85;nan;101317.53;4145592;28;19933;-68
2024/03/05 17:32:42;;;;;;;;;;;;;;;8.81;nan;101318.84;4145486;28;19937;-69
2024/03/05 17:34:45;;;;;;;;;;;;;;;8.79;nan;101323.50;4143578;28;20314;-68
2024/03/05 17:36:49;;;;;;;;;;;;;;;8.75;nan;101325.66;4146373;28;19952;-70
2024/03/05 17:38:51;;;;;;;;;;;;;;;8.71;nan;101329.66;4145977;28;20272;-69
2024/03/05 17:40:53;;;;;;;;;;;;;;;8.69;nan;101331.66;4144956;28;19929;-69
2024/03/05 17:42:57;;;;;;;;;;;;;;;8.67;nan;101330.97;4133708;28;19936;-69
2024/03/05 17:45:00;;;;;;;;;;;;;;;8.63;nan;101335.78;4146000;28;19929;-69
2024/03/05 17:47:02;;;;;;;;;;;;;;;8.60;nan;101340.63;4147226;28;20306;-70
2024/03/05 17:49:04;;;;;;;;;;;;;;;8.55;nan;101338.38;4146501;28;20322;-69
2024/03/05 17:51:10;;;;;;;;;;;;;;;8.52;nan;101344.06;4145583;28;20379;-69
2024/03/05 17:53:15;;;;;;;;;;;;;;;8.46;nan;101337.44;4145504;28;19929;-70
2024/03/05 17:55:17;;;;;;;;;;;;;;;8.44;nan;101343.97;4145399;28;19925;-70
2024/03/05 17:57:20;;;;;;;;;;;;;;;8.42;nan;101348.63;4145046;28;19926;-70
2024/03/05 17:59:23;;;;;;;;;;;;;;;8.38;nan;101344.53;4145425;28;19929;-70
2024/03/05 18:01:26;;;;;;;;;;;;;;;8.35;nan;101350.19;4145460;28;19929;-69
2024/03/05 18:03:34;;;;;;;;;;;;;;;8.31;nan;101344.28;4143634;28;19926;-69
2024/03/05 18:05:37;;;;;;;;;;;;;;;8.27;nan;101346.41;4145462;28;19933;-70
2024/03/05 18:07:40;;;;;;;;;;;;;;;8.24;nan;101356.63;4143162;28;19930;-69
2024/03/05 18:09:43;;;;;;;;;;;;;;;8.19;nan;101351.66;4145346;28;19929;-69
2024/03/05 18:11:45;;;;;;;;;;;;;;;8.17;nan;101364.44;4128135;28;19941;-70
2024/03/05 18:13:48;;;;;;;;;;;;;;;8.16;nan;101361.88;4145499;28;19929;-69
2024/03/05 18:15:50;;;;;;;;;;;;;;;8.13;nan;101360.31;4146720;28;20397;-70
2024/03/05 18:17:54;;;;;;;;;;;;;;;8.09;nan;101362.47;4145937;28;19932;-67
2024/03/05 18:19:55;;;;;;;;;;;;;;;8.06;nan;101362.75;4145706;28;19925;-68
2024/03/05 18:21:59;;;;;;;;;;;;;;;8.04;nan;101358.50;4145895;28;19932;-67
2024/03/05 18:24:03;;;;;;;;;;;;;;;8.02;nan;101360.50;4145507;28;20310;-67
2024/03/05 18:26:07;;;;;;;;;;;;;;;8.00;nan;101354.44;4144988;28;19929;-68
2024/03/05 18:28:10;;;;;;;;;;;;;;;7.97;nan;101360.94;4146085;28;19929;-69
2024/03/05 18:30:13;;;;;;;;;;;;;;;7.94;nan;101361.22;4146122;28;19936;-69
2024/03/05 18:32:15;;;;;;;;;;;;;;;7.89;nan;101371.56;4129129;28;20403;-68
2024/03/05 18:34:19;;;;;;;;;;;;;;;7.86;nan;101377.25;4145904;28;20321;-67
2024/03/05 18:36:21;;;;;;;;;;;;;;;7.83;nan;101378.38;4146349;28;20417;-68
2024/03/05 18:38:24;;;;;;;;;;;;;;;7.81;nan;101379.50;4143865;28;19936;-68
2024/03/05 18:40:27;;;;;;;;;;;;;;;7.81;nan;101379.50;4138739;28;19974;-69
2024/03/05 18:42:30;;;;;;;;;;;;;;;7.78;nan;101374.44;4143095;28;19933;-69
2024/03/05 18:44:33;;;;;;;;;;;;;;;7.75;nan;101375.56;4145121;28;19926;-69
2024/03/05 18:46:35;;;;;;;;;;;;;;;7.72;nan;101382.03;4142491;28;19929;-69
2024/03/05 18:48:37;;;;;;;;;;;;;;;7.71;nan;101384.88;4143236;28;19925;-68
2024/03/05 18:50:40;;;;;;;;;;;;;;;7.68;nan;101379.78;4143835;28;19929;-68
2024/03/05 18:52:44;;;;;;;;;;;;;;;7.65;nan;101380.06;4144780;28;20232;-68
2024/03/05 18:54:46;;;;;;;;;;;;;;;7.64;nan;101383.78;4143042;28;19933;-68
2024/03/05 18:56:48;;;;;;;;;;;;;;;7.61;nan;101384.88;4142989;28;20484;-68
2024/03/05 18:58:52;;;;;;;;;;;;;;;7.58;nan;101391.38;4142481;28;20421;-68
2024/03/05 19:00:54;;;;;;;;;;;;;;;7.54;nan;101392.69;4143271;28;19933;-68
2024/03/05 19:02:56;;;;;;;;;;;;;;;7.52;nan;101396.50;4143784;28;19925;-68
2024/03/05 19:04:58;;;;;;;;;;;;;;;7.49;nan;101394.09;4142496;28;20326;-68
2024/03/05 19:07:00;;;;;;;;;;;;;;;7.47;nan;101394.22;4145690;28;19935;-68
2024/03/05 19:09:04;;;;;;;;;;;;;;;7.44;nan;101407.09;4147557;28;19947;-68
2024/03/05 19:11:08;;;;;;;;;;;;;;;7.40;nan;101407.38;4148351;28;19925;-68